createdAt,value
2019-04-11T00:03:31.748Z,3.81
2019-04-11T00:08:34.189Z,3.84
2019-04-11T00:13:37.686Z,3.94
2019-04-11T00:18:42.902Z,4.04
2019-04-11T00:23:46.109Z,3.89
2019-04-11T00:28:48.182Z,3.84
2019-04-11T00:33:50.811Z,3.81
2019-04-11T00:38:52.789Z,3.73
2019-04-11T00:43:54.731Z,3.83
2019-04-11T00:48:57.792Z,3.65
2019-04-11T00:54:00.570Z,3.69
2019-04-11T00:59:02.866Z,3.60
2019-04-11T01:04:04.851Z,3.59
2019-04-11T01:09:08.276Z,3.65
2019-04-11T01:14:10.943Z,3.49
2019-04-11T01:19:12.917Z,3.69
2019-04-11T01:24:15.625Z,3.56
2019-04-11T01:29:17.926Z,3.47
2019-04-11T01:34:20.289Z,3.70
2019-04-11T01:39:29.425Z,3.52
2019-04-11T01:44:32.520Z,3.51
2019-04-11T01:49:34.773Z,3.66
2019-04-11T01:54:37.712Z,3.41
2019-04-11T01:59:39.699Z,3.51
2019-04-11T02:04:48.757Z,3.49
2019-04-11T02:09:52.599Z,3.40
2019-04-11T02:14:55.494Z,3.31
2019-04-11T02:19:58.696Z,3.31
2019-04-11T02:25:14.994Z,3.29
2019-04-11T02:30:20.029Z,3.22
2019-04-11T02:35:22.681Z,3.14
2019-04-11T02:40:24.884Z,2.96
2019-04-11T02:45:42.671Z,2.95
2019-04-11T02:50:34.441Z,2.82
2019-04-11T02:55:37.983Z,2.73
2019-04-11T03:00:40.487Z,2.56
2019-04-11T03:05:44.550Z,2.55
2019-04-11T03:10:49.231Z,2.38
2019-04-11T03:16:05.457Z,2.21
2019-04-11T03:21:00.183Z,2.24
2019-04-11T03:26:00.661Z,2.09
2019-04-11T03:31:37.411Z,2.04
2019-04-11T03:37:01.033Z,1.84
2019-04-11T03:41:26.852Z,1.86
2019-04-11T03:46:33.309Z,1.86
2019-04-11T03:51:21.000Z,1.71
2019-04-11T03:56:24.442Z,1.66
2019-04-11T04:01:26.941Z,1.47
2019-04-11T04:06:30.881Z,1.32
2019-04-11T04:11:34.950Z,1.23
2019-04-11T04:16:48.254Z,1.39
2019-04-11T04:22:11.181Z,1.28
2019-04-11T04:27:15.304Z,1.28
2019-04-11T04:32:18.681Z,1.33
2019-04-11T04:37:24.047Z,1.37
2019-04-11T04:42:36.014Z,1.24
2019-04-11T04:47:39.576Z,1.09
2019-04-11T04:52:36.606Z,1.17
2019-04-11T04:57:40.542Z,1.23
2019-04-11T05:02:44.182Z,1.17
2019-04-11T05:07:47.030Z,1.42
2019-04-11T05:12:49.242Z,1.51
2019-04-11T05:17:51.320Z,1.40
2019-04-11T05:22:53.276Z,1.60
2019-04-11T05:27:55.916Z,1.60
2019-04-11T05:32:58.205Z,1.66
2019-04-11T05:38:00.091Z,2.00
2019-04-11T05:43:01.993Z,2.10
2019-04-11T05:48:07.716Z,2.24
2019-04-11T05:53:09.695Z,2.41
2019-04-11T05:58:14.205Z,2.70
2019-04-11T06:03:15.683Z,3.05
2019-04-11T06:08:25.459Z,3.05
2019-04-11T06:13:36.429Z,3.27
2019-04-11T06:18:58.812Z,3.49
2019-04-11T06:24:20.221Z,3.57
2019-04-11T06:29:28.387Z,3.76
2019-04-11T06:34:33.471Z,3.72
2019-04-11T06:39:43.340Z,3.91
2019-04-11T06:50:23.194Z,4.44
2019-04-11T06:55:44.795Z,4.46
2019-04-11T07:00:51.705Z,4.50
2019-04-11T07:05:53.808Z,4.57
2019-04-11T07:11:00.842Z,4.66
2019-04-11T07:16:02.936Z,4.80
2019-04-11T07:21:06.888Z,4.94
2019-04-11T07:26:18.872Z,5.18
2019-04-11T07:31:39.744Z,5.25
2019-04-11T07:37:00.328Z,5.62
2019-04-11T07:42:21.944Z,5.35
2019-04-11T07:47:35.177Z,5.31
2019-04-11T07:53:03.470Z,5.90
2019-04-11T07:58:19.466Z,5.78
2019-04-11T08:03:40.007Z,5.77
2019-04-11T08:09:07.692Z,5.85
2019-04-11T08:14:20.221Z,6.16
2019-04-11T08:19:40.838Z,6.12
2019-04-11T08:24:53.102Z,6.59
2019-04-11T08:29:56.666Z,6.57
2019-04-11T08:35:10.153Z,7.11
2019-04-11T08:40:13.444Z,7.18
2019-04-11T08:45:16.011Z,7.12
2019-04-11T08:50:22.734Z,7.51
2019-04-11T08:55:45.594Z,7.62
2019-04-11T09:00:51.142Z,7.12
2019-04-11T09:06:10.042Z,7.22
2019-04-11T09:11:24.679Z,6.96
2019-04-11T09:16:54.067Z,7.10
2019-04-11T09:22:15.106Z,7.92
2019-04-11T09:27:36.527Z,8.87
2019-04-11T09:33:00.313Z,8.81
2019-04-11T09:38:02.666Z,7.46
2019-04-11T09:43:12.600Z,7.20
2019-04-11T09:48:42.198Z,7.79
2019-04-11T09:53:47.260Z,7.16
2019-04-11T09:58:50.033Z,7.27
2019-04-11T10:03:52.905Z,7.29
2019-04-11T10:08:57.703Z,7.57
2019-04-11T10:14:03.076Z,8.05
2019-04-11T10:19:13.921Z,8.08
2019-04-11T10:30:08.669Z,8.65
2019-04-11T10:35:32.817Z,9.53
2019-04-11T10:40:48.235Z,9.72
2019-04-11T10:46:00.830Z,9.33
2019-04-11T10:51:13.086Z,9.22
2019-04-11T10:56:28.487Z,8.97
2019-04-11T11:01:48.796Z,9.05
2019-04-11T11:06:53.856Z,9.02
2019-04-11T11:12:19.075Z,8.91
2019-04-11T11:17:54.892Z,8.96
2019-04-11T11:22:58.071Z,8.74
2019-04-11T11:28:01.730Z,8.31
2019-04-11T11:33:05.593Z,8.78
2019-04-11T11:38:14.834Z,8.90
2019-04-11T11:43:21.077Z,8.80
2019-04-11T11:48:35.529Z,8.62
2019-04-11T11:53:55.349Z,8.28
2019-04-11T11:59:16.968Z,8.68
2019-04-11T12:04:39.025Z,8.61
2019-04-11T12:10:10.974Z,8.63
2019-04-11T12:15:31.517Z,8.60
2019-04-11T12:20:41.362Z,8.33
2019-04-11T12:25:43.143Z,8.55
2019-04-11T12:30:57.957Z,8.77
2019-04-11T12:36:06.459Z,9.11
2019-04-11T12:41:17.140Z,9.52
2019-04-11T12:46:37.474Z,8.73
2019-04-11T12:52:07.690Z,9.19
2019-04-11T12:57:41.489Z,8.57
2019-04-11T13:03:05.815Z,8.89
2019-04-11T13:08:33.213Z,9.14
2019-04-11T13:13:47.653Z,9.26
2019-04-11T13:19:08.081Z,9.27
2019-04-11T13:24:35.584Z,8.86
2019-04-11T13:29:57.237Z,8.88
2019-04-11T13:35:05.138Z,8.96
2019-04-11T13:40:26.896Z,8.96
2019-04-11T13:45:28.833Z,8.61
2019-04-11T13:50:32.546Z,8.70
2019-04-11T13:55:37.492Z,8.92
2019-04-11T14:00:49.570Z,8.67
2019-04-11T14:05:51.440Z,8.67
2019-04-11T14:11:05.741Z,8.72
2019-04-11T14:16:16.423Z,8.68
2019-04-11T14:21:19.935Z,8.68
2019-04-11T14:26:32.643Z,8.62
2019-04-11T14:31:56.155Z,8.74
2019-04-11T14:37:03.354Z,8.71
2019-04-11T14:42:18.825Z,8.48
2019-04-11T14:47:49.254Z,8.42
2019-04-11T14:53:17.374Z,8.31
2019-04-11T14:58:39.036Z,8.19
2019-04-11T15:04:00.680Z,8.28
2019-04-11T15:09:27.235Z,8.08
2019-04-11T15:14:52.054Z,8.07
2019-04-11T15:20:13.671Z,8.03
2019-04-11T15:25:41.996Z,7.82
2019-04-11T15:30:48.405Z,8.03
2019-04-11T15:35:48.681Z,7.61
2019-04-11T15:40:53.529Z,7.63
2019-04-11T15:46:17.031Z,7.58
2019-04-11T15:51:37.008Z,7.66
2019-04-11T15:56:48.622Z,7.64
2019-04-11T16:02:08.903Z,7.74
2019-04-11T16:07:39.130Z,7.61
2019-04-11T16:12:48.618Z,7.43
2019-04-11T16:18:19.359Z,7.43
2019-04-11T16:23:38.264Z,7.34
2019-04-11T16:29:17.684Z,7.47
2019-04-11T16:34:48.623Z,7.39
2019-04-11T16:40:05.766Z,7.38
2019-04-11T16:45:39.525Z,7.00
2019-04-11T16:50:41.412Z,7.03
2019-04-11T16:55:43.742Z,6.94
2019-04-11T17:00:45.802Z,7.07
2019-04-11T17:05:55.941Z,7.01
2019-04-11T17:11:19.011Z,7.02
2019-04-11T17:16:22.079Z,7.02
2019-04-11T17:21:23.976Z,6.91
2019-04-11T17:26:25.982Z,6.74
2019-04-11T17:31:29.062Z,6.89
2019-04-11T17:36:33.536Z,6.72
2019-04-11T17:41:34.844Z,6.65
2019-04-11T17:46:36.858Z,6.23
2019-04-11T17:51:38.932Z,6.28
2019-04-11T17:56:40.930Z,6.33
2019-04-11T18:01:43.073Z,6.13
2019-04-11T18:06:46.928Z,6.05
2019-04-11T18:11:48.751Z,6.14
2019-04-11T18:16:50.777Z,5.98
2019-04-11T18:21:52.643Z,5.87
2019-04-11T18:33:12.028Z,5.91
2019-04-11T18:38:13.984Z,5.58
2019-04-11T18:43:16.357Z,5.61
2019-04-11T18:48:18.772Z,5.62
2019-04-11T18:53:20.759Z,5.64
2019-04-11T18:58:22.819Z,5.67
2019-04-11T19:03:35.704Z,5.57
2019-04-11T19:08:30.573Z,5.41
2019-04-11T19:13:33.741Z,5.65
2019-04-11T19:18:35.671Z,5.49
2019-04-11T19:23:39.112Z,5.47
2019-04-11T19:28:41.517Z,5.09
2019-04-11T19:33:43.382Z,5.10
2019-04-11T19:38:45.340Z,5.26
2019-04-11T19:43:49.217Z,5.17
2019-04-11T19:48:55.396Z,5.35
2019-04-11T19:53:55.091Z,5.20
2019-04-11T19:58:56.899Z,5.26
2019-04-11T20:03:59.019Z,5.24
2019-04-11T20:09:01.050Z,5.21
2019-04-11T20:14:03.722Z,5.24
2019-04-11T20:19:05.633Z,5.31
2019-04-11T20:24:07.658Z,5.15
2019-04-11T20:29:09.526Z,5.12
2019-04-11T20:34:11.401Z,5.13
2019-04-11T20:39:15.288Z,5.10
2019-04-11T20:44:17.140Z,5.12
2019-04-11T20:49:19.135Z,5.13
2019-04-11T20:54:21.017Z,4.99
2019-04-11T20:59:33.763Z,5.01
2019-04-11T21:04:26.682Z,4.90
2019-04-11T21:09:28.536Z,4.92
2019-04-11T21:14:30.424Z,4.89
2019-04-11T21:19:32.313Z,4.88
2019-04-11T21:24:34.643Z,4.81
2019-04-11T21:29:36.545Z,4.82
2019-04-11T21:34:38.421Z,4.88
2019-04-11T21:39:40.291Z,4.80
2019-04-11T21:44:42.303Z,4.77
2019-04-11T21:49:44.203Z,4.83
2019-04-11T21:54:46.076Z,4.76
2019-04-11T21:59:51.223Z,4.77
2019-04-11T22:04:51.748Z,4.71
2019-04-11T22:09:53.633Z,4.59
2019-04-11T22:14:56.539Z,4.59
2019-04-11T22:19:58.432Z,4.61
2019-04-11T22:25:00.349Z,4.68
2019-04-11T22:30:02.812Z,4.85
2019-04-11T22:35:04.912Z,4.68
2019-04-11T22:40:07.019Z,4.68
2019-04-11T22:45:09.206Z,4.60
2019-04-11T22:50:11.295Z,4.63
2019-04-11T22:55:13.169Z,4.64
2019-04-11T23:00:15.821Z,4.50
2019-04-11T23:05:18.542Z,4.52
2019-04-11T23:10:20.420Z,4.65
2019-04-11T23:15:22.314Z,4.62
2019-04-11T23:20:24.209Z,4.71
2019-04-11T23:25:26.108Z,4.48
2019-04-11T23:30:28.602Z,4.55
2019-04-11T23:35:30.497Z,4.48
2019-04-11T23:40:32.469Z,4.36
2019-04-11T23:45:34.388Z,4.37
2019-04-11T23:50:36.430Z,4.46
2019-04-11T23:55:39.394Z,4.31
